Boomer, West Virginia
Current Conditions -  °F | °C
As of 2:54 PM on Saturday 25 Oct 2014 (Local Time) from KCRW Reporting Station
Scattered Clouds Scattered Clouds  
Wind Chill: 67°   Ceiling: Unl
Heat Index: 67°   Visibility: 10mi
Dew Point: 48°   Wind: 10mph
Humidity: 51%   Direction: 210°SSW
Pressure: 29.94"   Gusts: NA
Location:  38.15°N, 81.29°W
Report Text: KCRW 251854Z 21009KT 10SM FEW050 SCT085 SCT250 19/09 A2994 RMK AO2 SLP139 T01940089 $
Loading
Personal Weather Stations






























Interactive Weather Map New forecast layout! Learn more

10-Day Weather Forecast

Advertisements
Track Severe Weather on mobile